Time;durP1;ratioP1;P1;durP2;ratioP2;P2;SDS_P1;SDS_P2;PMS_P1;PMS_P2;Temp;Humidity;BMP_temperature;BMP_pressure;BME280_temperature;BME280_humidity;BME280_pressure;Samples;Min_cycle;Max_cycle;Signal;HPM_P1;HPM_P2
2023/02/23 00:01:23;;;;;;;59.15;9.68;;;;;;;;;;5029341;28;20067;-47
2023/02/23 00:03:50;;;;;;;53.47;9.20;;;;;;;;;;5030349;28;20407;-46
2023/02/23 00:06:18;;;;;;;46.53;9.00;;;;;;;;;;5012155;28;20557;-44
2023/02/23 00:08:51;;;;;;;40.67;8.10;;;;;;;;;;5031547;28;20067;-44
2023/02/23 00:11:18;;;;;;;36.67;8.50;;;;;;;;;;5029192;28;20119;-45
2023/02/23 00:13:48;;;;;;;41.33;8.38;;;;;;;;;;5031074;28;20479;-46
2023/02/23 00:16:16;;;;;;;37.97;8.13;;;;;;;;;;5031017;28;20059;-47
2023/02/23 00:18:55;;;;;;;35.03;8.32;;;;;;;;;;5029309;28;20068;-44
2023/02/23 00:21:28;;;;;;;44.70;8.85;;;;;;;;;;5029544;28;20047;-46
2023/02/23 00:23:59;;;;;;;42.88;8.80;;;;;;;;;;5031015;28;20386;-44
2023/02/23 00:26:33;;;;;;;39.53;7.53;;;;;;;;;;5031083;28;20033;-46
2023/02/23 00:29:16;;;;;;;33.17;8.07;;;;;;;;;;5017599;28;20563;-45
2023/02/23 00:31:43;;;;;;;;;;;;;;;;;;5011477;28;20045;-46
2023/02/23 00:34:11;;;;;;;46.40;8.48;;;;;;;;;;5011549;28;20490;-45
2023/02/23 00:36:38;;;;;;;32.03;7.85;;;;;;;;;;5011495;28;20038;-45
2023/02/23 00:39:19;;;;;;;37.80;7.03;;;;;;;;;;5011425;28;20030;-46
2023/02/23 00:41:46;;;;;;;45.87;7.60;;;;;;;;;;5009948;28;20088;-46
2023/02/23 00:44:16;;;;;;;37.13;7.85;;;;;;;;;;5011387;28;20563;-45
2023/02/23 00:46:44;;;;;;;34.42;7.70;;;;;;;;;;5011379;28;20029;-47
2023/02/23 00:49:12;;;;;;;32.55;7.05;;;;;;;;;;5009903;28;20140;-46
2023/02/23 00:51:40;;;;;;;35.58;7.00;;;;;;;;;;5009261;28;20034;-45
2023/02/23 00:54:07;;;;;;;43.15;8.18;;;;;;;;;;5016620;28;20648;-50
2023/02/23 00:56:34;;;;;;;35.35;7.35;;;;;;;;;;5027748;28;20557;-44
2023/02/23 00:59:01;;;;;;;37.15;7.53;;;;;;;;;;5029797;28;20037;-44
2023/02/23 01:01:28;;;;;;;40.72;7.57;;;;;;;;;;5028823;28;20479;-43
2023/02/23 01:03:56;;;;;;;43.53;7.30;;;;;;;;;;5027256;28;20051;-46
2023/02/23 01:06:23;;;;;;;38.88;7.85;;;;;;;;;;5028563;28;20029;-49
2023/02/23 01:08:55;;;;;;;33.47;7.60;;;;;;;;;;5028596;28;20373;-50
2023/02/23 01:11:22;;;;;;;;;;;;;;;;;;5028369;28;20103;-51
2023/02/23 01:13:50;;;;;;;33.92;7.10;;;;;;;;;;5028523;28;19924;-46
2023/02/23 01:16:20;;;;;;;44.33;7.90;;;;;;;;;;5024261;28;20120;-47
2023/02/23 01:18:48;;;;;;;38.90;7.47;;;;;;;;;;5022329;28;20674;-44
2023/02/23 01:21:19;;;;;;;32.90;6.53;;;;;;;;;;5025893;28;20538;-43
2023/02/23 01:23:46;;;;;;;29.58;5.57;;;;;;;;;;5027721;28;20563;-42
2023/02/23 01:26:18;;;;;;;43.55;5.75;;;;;;;;;;5024643;28;20030;-44
2023/02/23 01:28:48;;;;;;;33.10;5.65;;;;;;;;;;5027281;28;20113;-43
2023/02/23 01:31:15;;;;;;;36.65;5.35;;;;;;;;;;5026543;28;20022;-42
2023/02/23 01:33:42;;;;;;;45.42;5.25;;;;;;;;;;5026611;28;20043;-43
2023/02/23 01:36:09;;;;;;;38.22;5.43;;;;;;;;;;5026701;28;20824;-42
2023/02/23 01:38:37;;;;;;;34.95;4.93;;;;;;;;;;5028190;28;20033;-46
2023/02/23 01:41:05;;;;;;;32.80;4.72;;;;;;;;;;5011116;28;20495;-42
2023/02/23 01:43:33;;;;;;;39.55;5.15;;;;;;;;;;5029146;28;20040;-42
2023/02/23 01:46:00;;;;;;;33.38;4.90;;;;;;;;;;5028007;28;20033;-43
2023/02/23 01:48:29;;;;;;;24.38;4.80;;;;;;;;;;5027851;28;20423;-40
2023/02/23 01:51:05;;;;;;;30.48;4.40;;;;;;;;;;5028731;28;20063;-46
2023/02/23 01:53:35;;;;;;;25.70;4.05;;;;;;;;;;5028302;28;20091;-46
2023/02/23 01:56:15;;;;;;;22.95;4.05;;;;;;;;;;5027010;28;20037;-43
2023/02/23 01:58:43;;;;;;;22.42;3.95;;;;;;;;;;5021701;28;20030;-43
2023/02/23 02:01:11;;;;;;;22.67;3.67;;;;;;;;;;5024796;28;20022;-41
2023/02/23 02:03:41;;;;;;;20.08;3.63;;;;;;;;;;5030512;28;20036;-44
2023/02/23 02:06:10;;;;;;;15.02;3.70;;;;;;;;;;5031640;28;20039;-44
2023/02/23 02:08:43;;;;;;;21.52;3.58;;;;;;;;;;5031162;28;20033;-47
2023/02/23 02:11:24;;;;;;;18.60;4.18;;;;;;;;;;5029686;28;20037;-43
2023/02/23 02:13:59;;;;;;;21.02;4.10;;;;;;;;;;5029115;28;20029;-45
2023/02/23 02:16:41;;;;;;;27.33;4.18;;;;;;;;;;5021558;28;20025;-48
2023/02/23 02:19:32;;;;;;;25.58;4.53;;;;;;;;;;5026808;28;20042;-46
2023/02/23 02:21:59;;;;;;;27.85;3.88;;;;;;;;;;5019639;28;20105;-41
2023/02/23 02:24:38;;;;;;;14.43;3.65;;;;;;;;;;5027022;28;20034;-48
2023/02/23 02:27:11;;;;;;;18.35;3.50;;;;;;;;;;5031301;28;20030;-46
2023/02/23 02:29:38;;;;;;;25.65;4.22;;;;;;;;;;5031312;28;20116;-44
2023/02/23 02:32:14;;;;;;;29.70;3.97;;;;;;;;;;5028871;28;20139;-47
2023/02/23 02:34:41;;;;;;;16.45;3.83;;;;;;;;;;5015016;28;20034;-46
2023/02/23 02:37:24;;;;;;;20.40;3.58;;;;;;;;;;5022024;28;20021;-46
2023/02/23 02:39:52;;;;;;;;;;;;;;;;;;5019024;28;20435;-46
2023/02/23 02:42:20;;;;;;;16.45;2.72;;;;;;;;;;5028130;28;20256;-46
2023/02/23 02:44:52;;;;;;;26.73;4.35;;;;;;;;;;5026392;28;20037;-43
2023/02/23 02:47:19;;;;;;;;;;;;;;;;;;5028107;28;20036;-48
2023/02/23 02:49:58;;;;;;;27.30;4.25;;;;;;;;;;5030819;28;20008;-44
2023/02/23 02:52:29;;;;;;;33.42;5.28;;;;;;;;;;5021220;28;20045;-48
2023/02/23 02:54:58;;;;;;;22.73;4.05;;;;;;;;;;5016983;28;20033;-45
2023/02/23 02:57:27;;;;;;;19.13;4.47;;;;;;;;;;5022842;28;20045;-47
2023/02/23 04:19:56;;;;;;;14.70;4.30;;;;;;;;;;5031287;28;20030;-48
2023/02/23 04:22:23;;;;;;;15.93;4.47;;;;;;;;;;5031430;28;20083;-44
2023/02/23 04:24:50;;;;;;;15.88;4.30;;;;;;;;;;5031213;28;20034;-47
2023/02/23 04:27:17;;;;;;;20.42;4.22;;;;;;;;;;5031228;28;20028;-46
2023/02/23 04:29:44;;;;;;;16.52;3.88;;;;;;;;;;5031287;28;20084;-48
2023/02/23 04:32:16;;;;;;;17.60;4.00;;;;;;;;;;5031104;28;20081;-46
2023/02/23 04:34:43;;;;;;;11.45;3.15;;;;;;;;;;5031034;28;20022;-47
2023/02/23 04:37:12;;;;;;;14.32;3.38;;;;;;;;;;5031142;28;20079;-47
2023/02/23 04:39:39;;;;;;;12.75;3.38;;;;;;;;;;5031018;28;20029;-45
2023/02/23 04:42:06;;;;;;;9.93;3.35;;;;;;;;;;5030950;28;20033;-50
2023/02/23 04:44:33;;;;;;;11.52;3.40;;;;;;;;;;5031034;28;20032;-46
2023/02/23 04:47:00;;;;;;;10.52;3.08;;;;;;;;;;5031148;28;20025;-50
2023/02/23 04:49:27;;;;;;;15.07;3.58;;;;;;;;;;5030943;28;20025;-45
2023/02/23 04:51:54;;;;;;;16.17;3.90;;;;;;;;;;5031032;28;20026;-46
2023/02/23 04:54:21;;;;;;;23.42;3.35;;;;;;;;;;5031146;28;20029;-46
2023/02/23 04:56:48;;;;;;;21.33;3.80;;;;;;;;;;5030966;28;20029;-45
2023/02/23 04:59:15;;;;;;;15.48;3.80;;;;;;;;;;5030913;28;20045;-46
2023/02/23 05:01:42;;;;;;;13.63;3.63;;;;;;;;;;5030987;28;20530;-49
2023/02/23 05:04:09;;;;;;;12.18;3.13;;;;;;;;;;5030976;28;20067;-46
2023/02/23 05:06:36;;;;;;;10.80;2.88;;;;;;;;;;5030936;28;20018;-46
2023/02/23 05:09:05;;;;;;;16.48;3.22;;;;;;;;;;5030834;28;20151;-46
2023/02/23 05:11:32;;;;;;;12.90;3.47;;;;;;;;;;5030809;28;21329;-47
2023/02/23 05:13:59;;;;;;;14.63;3.55;;;;;;;;;;5030810;28;20034;-45
2023/02/23 05:16:26;;;;;;;13.98;3.10;;;;;;;;;;5013115;28;20063;-47
2023/02/23 05:18:53;;;;;;;12.55;3.10;;;;;;;;;;5030607;28;20030;-47
2023/02/23 05:21:20;;;;;;;13.15;3.28;;;;;;;;;;5030759;28;20024;-47
2023/02/23 05:23:47;;;;;;;15.52;4.20;;;;;;;;;;5030691;28;20026;-47
2023/02/23 05:26:14;;;;;;;16.98;4.55;;;;;;;;;;5030769;28;20387;-46
2023/02/23 05:28:42;;;;;;;11.25;3.38;;;;;;;;;;5030678;28;20107;-48
2023/02/23 05:31:09;;;;;;;17.15;3.90;;;;;;;;;;5030646;28;20026;-45
2023/02/23 05:33:42;;;;;;;15.52;4.22;;;;;;;;;;5030423;28;20385;-46
2023/02/23 05:36:10;;;;;;;22.75;4.30;;;;;;;;;;5030567;28;20482;-46
2023/02/23 05:38:38;;;;;;;21.13;4.72;;;;;;;;;;5032310;28;20021;-45
2023/02/23 05:41:12;;;;;;;15.50;3.47;;;;;;;;;;5034379;28;20037;-45
2023/02/23 05:43:39;;;;;;;8.77;3.20;;;;;;;;;;5034500;28;20475;-45
2023/02/23 05:46:07;;;;;;;11.50;3.30;;;;;;;;;;5034482;28;20079;-45
2023/02/23 05:48:34;;;;;;;11.68;3.40;;;;;;;;;;5034261;28;20389;-46
2023/02/23 05:51:02;;;;;;;13.75;3.63;;;;;;;;;;5034239;28;20026;-46
2023/02/23 05:53:29;;;;;;;9.23;3.28;;;;;;;;;;5034153;28;20033;-45
2023/02/23 05:55:56;;;;;;;8.00;3.20;;;;;;;;;;5034232;28;20084;-46
2023/02/23 05:58:24;;;;;;;15.43;3.30;;;;;;;;;;5034030;28;20040;-46
2023/02/23 06:00:51;;;;;;;12.50;3.20;;;;;;;;;;5031896;28;20431;-45
2023/02/23 06:03:18;;;;;;;9.23;3.13;;;;;;;;;;5032246;28;20485;-45
2023/02/23 06:05:52;;;;;;;11.63;3.30;;;;;;;;;;5034191;28;20045;-49
2023/02/23 06:08:19;;;;;;;7.40;2.65;;;;;;;;;;5033836;28;20083;-48
2023/02/23 06:10:46;;;;;;;11.80;3.03;;;;;;;;;;5033943;28;20021;-46
2023/02/23 06:13:13;;;;;;;7.10;3.10;;;;;;;;;;5033828;28;20036;-47
2023/02/23 06:15:40;;;;;;;6.38;2.78;;;;;;;;;;5033918;28;20092;-50
2023/02/23 06:18:08;;;;;;;12.27;3.00;;;;;;;;;;5033867;28;20030;-49
2023/02/23 06:20:35;;;;;;;9.27;3.13;;;;;;;;;;5033708;28;20124;-46
2023/02/23 06:23:03;;;;;;;9.90;3.25;;;;;;;;;;5033479;28;20083;-44
2023/02/23 06:25:30;;;;;;;9.50;3.00;;;;;;;;;;5033653;28;20029;-44
2023/02/23 06:27:57;;;;;;;13.60;3.28;;;;;;;;;;5015871;28;20029;-43
2023/02/23 06:30:24;;;;;;;7.10;2.75;;;;;;;;;;5033622;28;20514;-45
2023/02/23 06:32:50;;;;;;;10.32;3.10;;;;;;;;;;5033281;28;20056;-46
2023/02/23 06:35:17;;;;;;;13.20;3.10;;;;;;;;;;5033559;28;20445;-47
2023/02/23 06:37:44;;;;;;;17.98;3.30;;;;;;;;;;5033427;28;20430;-48
2023/02/23 06:40:12;;;;;;;11.20;3.08;;;;;;;;;;5033276;28;20084;-44
2023/02/23 06:42:39;;;;;;;15.90;3.10;;;;;;;;;;5033626;28;20029;-44
2023/02/23 06:45:06;;;;;;;15.55;3.55;;;;;;;;;;5033321;28;20033;-44
2023/02/23 06:47:33;;;;;;;14.55;3.30;;;;;;;;;;5033259;28;20026;-43
2023/02/23 06:50:02;;;;;;;14.82;3.55;;;;;;;;;;5033185;28;20048;-44
2023/02/23 06:52:29;;;;;;;14.30;3.33;;;;;;;;;;5032991;28;20040;-43
2023/02/23 06:54:55;;;;;;;10.88;3.20;;;;;;;;;;5015234;28;20029;-43
2023/02/23 06:57:22;;;;;;;10.45;3.58;;;;;;;;;;5033201;28;20025;-43
2023/02/23 06:59:49;;;;;;;13.38;3.85;;;;;;;;;;5033020;28;20025;-43
2023/02/23 07:02:17;;;;;;;12.27;3.20;;;;;;;;;;5033183;28;20030;-43
2023/02/23 07:04:43;;;;;;;8.68;3.03;;;;;;;;;;5033073;28;20115;-44
2023/02/23 07:07:11;;;;;;;7.13;2.80;;;;;;;;;;5032992;28;20057;-43
2023/02/23 07:09:41;;;;;;;8.10;3.00;;;;;;;;;;5032753;28;20028;-43
2023/02/23 07:12:09;;;;;;;8.85;3.10;;;;;;;;;;5032749;28;20029;-44
2023/02/23 07:14:37;;;;;;;6.18;2.90;;;;;;;;;;5032764;28;20030;-45
2023/02/23 07:17:04;;;;;;;7.10;2.92;;;;;;;;;;5032701;28;20026;-43
2023/02/23 07:19:32;;;;;;;7.50;3.10;;;;;;;;;;5032564;28;20112;-46
2023/02/23 07:21:59;;;;;;;8.98;3.25;;;;;;;;;;5032926;28;20061;-45
2023/02/23 07:24:27;;;;;;;7.00;3.10;;;;;;;;;;5032623;28;20022;-45
2023/02/23 07:26:54;;;;;;;10.38;3.10;;;;;;;;;;5032675;28;20025;-45
2023/02/23 07:29:22;;;;;;;7.85;2.70;;;;;;;;;;5032449;28;20468;-46
2023/02/23 07:31:49;;;;;;;7.28;2.83;;;;;;;;;;5032170;28;20086;-46
2023/02/23 07:34:17;;;;;;;6.13;2.67;;;;;;;;;;5032467;28;20041;-45
2023/02/23 07:36:43;;;;;;;5.40;2.85;;;;;;;;;;5032431;28;20467;-47
2023/02/23 07:39:11;;;;;;;8.48;2.63;;;;;;;;;;5032279;28;20029;-45
2023/02/23 07:41:39;;;;;;;5.97;2.55;;;;;;;;;;5032137;28;20510;-45
2023/02/23 07:44:06;;;;;;;7.45;2.63;;;;;;;;;;5032290;28;20022;-45
2023/02/23 07:46:33;;;;;;;7.18;2.70;;;;;;;;;;5032204;28;20506;-46
2023/02/23 07:49:00;;;;;;;11.27;2.78;;;;;;;;;;5032072;28;20063;-46
2023/02/23 07:51:27;;;;;;;5.18;2.65;;;;;;;;;;5031981;28;20022;-45
2023/02/23 07:53:54;;;;;;;10.32;2.58;;;;;;;;;;5032042;28;20479;-46
2023/02/23 07:56:21;;;;;;;7.07;2.80;;;;;;;;;;5032039;28;20014;-46
2023/02/23 07:58:48;;;;;;;8.38;2.85;;;;;;;;;;5031802;28;20040;-46
2023/02/23 08:01:15;;;;;;;5.45;2.10;;;;;;;;;;5031494;28;20041;-46
2023/02/23 08:03:48;;;;;;;7.75;2.78;;;;;;;;;;5031828;28;20569;-45
2023/02/23 08:06:15;;;;;;;11.65;2.95;;;;;;;;;;5031617;28;20033;-45
2023/02/23 08:08:43;;;;;;;6.80;2.90;;;;;;;;;;5031740;28;20026;-47
2023/02/23 08:11:10;;;;;;;8.05;2.90;;;;;;;;;;5031756;28;20092;-47
2023/02/23 08:13:38;;;;;;;8.23;2.78;;;;;;;;;;5031546;28;20407;-45
2023/02/23 08:16:05;;;;;;;7.65;2.70;;;;;;;;;;5031580;28;20021;-46
2023/02/23 08:18:32;;;;;;;6.53;2.63;;;;;;;;;;5031548;28;20029;-47
2023/02/23 08:21:00;;;;;;;12.13;3.13;;;;;;;;;;5031601;28;20021;-46
2023/02/23 08:23:29;;;;;;;4.85;2.70;;;;;;;;;;5031459;28;20051;-45
2023/02/23 08:25:56;;;;;;;8.90;3.00;;;;;;;;;;5031544;28;20071;-46
2023/02/23 08:28:24;;;;;;;6.05;2.60;;;;;;;;;;5031236;28;20025;-46
2023/02/23 08:30:51;;;;;;;5.35;2.38;;;;;;;;;;5031522;28;20109;-45
2023/02/23 08:33:18;;;;;;;5.68;3.00;;;;;;;;;;5031068;28;20051;-45
2023/02/23 08:35:45;;;;;;;8.32;2.70;;;;;;;;;;5031369;28;20036;-46
2023/02/23 08:38:12;;;;;;;9.88;2.80;;;;;;;;;;5031223;28;20025;-46
2023/02/23 08:40:39;;;;;;;4.90;2.90;;;;;;;;;;5031317;28;20034;-45
2023/02/23 08:43:06;;;;;;;6.30;2.70;;;;;;;;;;5031238;28;20124;-45
2023/02/23 08:45:33;;;;;;;8.45;2.92;;;;;;;;;;5031029;28;20045;-46
2023/02/23 08:48:00;;;;;;;5.80;2.92;;;;;;;;;;5031186;28;20114;-45
2023/02/23 08:50:27;;;;;;;7.75;3.13;;;;;;;;;;5031097;28;20052;-45
2023/02/23 08:52:54;;;;;;;6.10;2.63;;;;;;;;;;5030966;28;20034;-47
2023/02/23 08:55:22;;;;;;;8.18;2.90;;;;;;;;;;5031112;28;20026;-45
2023/02/23 08:57:49;;;;;;;9.20;3.25;;;;;;;;;;5030881;28;20075;-45
2023/02/23 09:00:16;;;;;;;4.68;3.03;;;;;;;;;;5031096;28;20476;-45
2023/02/23 09:02:46;;;;;;;4.63;2.47;;;;;;;;;;5030895;28;20026;-46
2023/02/23 09:05:13;;;;;;;11.82;3.20;;;;;;;;;;5030886;28;20033;-47
2023/02/23 09:07:43;;;;;;;8.38;2.80;;;;;;;;;;5030887;28;20033;-44
2023/02/23 09:10:14;;;;;;;8.23;2.78;;;;;;;;;;5030676;28;20025;-43
2023/02/23 09:12:41;;;;;;;10.55;2.75;;;;;;;;;;5030813;28;20079;-46
2023/02/23 09:15:09;;;;;;;12.68;2.80;;;;;;;;;;5034863;28;20486;-44
2023/02/23 09:17:36;;;;;;;8.63;2.60;;;;;;;;;;5034766;28;20029;-45
2023/02/23 09:20:03;;;;;;;7.38;2.67;;;;;;;;;;5026338;28;20048;-45
2023/02/23 09:22:30;;;;;;;9.70;3.10;;;;;;;;;;5024731;28;20059;-43
2023/02/23 09:24:57;;;;;;;9.18;2.83;;;;;;;;;;5028844;28;20479;-43
2023/02/23 09:27:24;;;;;;;12.95;3.28;;;;;;;;;;5023614;28;20039;-46
2023/02/23 09:29:51;;;;;;;12.38;3.17;;;;;;;;;;5013535;28;20061;-46
2023/02/23 09:32:18;;;;;;;6.57;2.80;;;;;;;;;;5032547;28;20064;-47
2023/02/23 09:34:47;;;;;;;9.38;3.58;;;;;;;;;;5031029;28;20372;-46
2023/02/23 09:37:14;;;;;;;10.88;3.47;;;;;;;;;;5032058;28;20072;-44
2023/02/23 09:39:42;;;;;;;17.42;3.97;;;;;;;;;;5017326;28;20061;-45
2023/02/23 09:42:09;;;;;;;9.98;4.30;;;;;;;;;;5026213;28;20398;-43
2023/02/23 09:44:48;;;;;;;14.55;4.20;;;;;;;;;;5030740;28;20022;-47
2023/02/23 09:47:29;;;;;;;15.10;4.13;;;;;;;;;;5007519;28;20491;-49
2023/02/23 09:49:58;;;;;;;14.75;4.40;;;;;;;;;;5022461;28;20041;-48
2023/02/23 09:52:28;;;;;;;20.50;4.13;;;;;;;;;;5021170;28;20030;-45
2023/02/23 09:54:55;;;;;;;10.13;3.45;;;;;;;;;;5022603;28;20581;-45
2023/02/23 09:57:24;;;;;;;19.15;4.53;;;;;;;;;;5023934;28;20462;-45
2023/02/23 09:59:52;;;;;;;18.50;4.22;;;;;;;;;;5027271;28;20052;-46
2023/02/23 10:02:23;;;;;;;20.48;4.70;;;;;;;;;;5014328;28;20069;-45
2023/02/23 10:04:51;;;;;;;23.42;4.55;;;;;;;;;;5014294;28;20029;-44
2023/02/23 10:07:37;;;;;;;14.13;3.67;;;;;;;;;;4996469;28;20038;-45
2023/02/23 10:10:22;;;;;;;16.55;3.58;;;;;;;;;;5014278;28;20396;-46
2023/02/23 10:12:49;;;;;;;20.23;4.38;;;;;;;;;;5030059;28;20490;-47
2023/02/23 10:15:24;;;;;;;19.42;3.88;;;;;;;;;;5033734;28;20026;-44
2023/02/23 10:18:02;;;;;;;15.85;3.85;;;;;;;;;;5033599;28;20402;-47
2023/02/23 10:20:35;;;;;;;17.83;3.70;;;;;;;;;;5033596;28;20114;-42
2023/02/23 10:23:05;;;;;;;19.23;3.70;;;;;;;;;;5033778;28;20045;-43
2023/02/23 10:25:34;;;;;;;12.57;3.65;;;;;;;;;;5033229;28;20525;-42
2023/02/23 10:28:02;;;;;;;9.20;3.45;;;;;;;;;;5033727;28;20029;-43
2023/02/23 10:30:31;;;;;;;20.80;3.58;;;;;;;;;;5033217;28;20022;-45
2023/02/23 10:32:58;;;;;;;14.00;3.63;;;;;;;;;;5033388;28;20064;-45
2023/02/23 10:35:28;;;;;;;20.73;3.78;;;;;;;;;;5029896;28;20032;-43
2023/02/23 10:37:56;;;;;;;10.88;3.05;;;;;;;;;;5021082;28;20042;-45
2023/02/23 10:40:26;;;;;;;15.02;3.70;;;;;;;;;;5030400;28;20033;-42
2023/02/23 10:42:54;;;;;;;16.20;3.70;;;;;;;;;;5026894;28;20038;-45
2023/02/23 10:45:22;;;;;;;11.77;4.60;;;;;;;;;;5027175;28;20056;-45
2023/02/23 10:47:58;;;;;;;10.48;4.13;;;;;;;;;;5032328;28;20029;-42
2023/02/23 10:50:27;;;;;;;13.20;4.72;;;;;;;;;;5033140;28;20432;-42
2023/02/23 10:52:58;;;;;;;12.73;5.38;;;;;;;;;;5033119;28;20052;-42
2023/02/23 10:55:32;;;;;;;20.85;6.18;;;;;;;;;;5021636;28;20442;-41
2023/02/23 10:58:17;;;;;;;28.60;6.72;;;;;;;;;;5013386;28;20065;-42
2023/02/23 11:01:10;;;;;;;19.27;5.93;;;;;;;;;;5013144;28;20041;-43
2023/02/23 11:03:43;;;;;;;26.20;5.13;;;;;;;;;;5009351;28;20041;-42
2023/02/23 11:06:30;;;;;;;16.40;5.13;;;;;;;;;;5013272;28;20491;-42
2023/02/23 11:08:57;;;;;;;13.15;5.15;;;;;;;;;;5013098;28;20018;-42
2023/02/23 11:11:28;;;;;;;21.42;4.50;;;;;;;;;;5013100;28;20534;-42
2023/02/23 11:13:56;;;;;;;15.53;4.47;;;;;;;;;;5013149;28;20107;-42
2023/02/23 11:16:30;;;;;;;25.25;4.07;;;;;;;;;;5013125;28;20034;-42
2023/02/23 11:18:57;;;;;;;17.23;4.30;;;;;;;;;;5013025;28;20515;-42
2023/02/23 11:21:24;;;;;;;18.92;4.72;;;;;;;;;;5013008;28;20479;-42
2023/02/23 11:23:53;;;;;;;19.45;4.10;;;;;;;;;;5013060;28;20030;-42
2023/02/23 11:26:37;;;;;;;20.42;4.40;;;;;;;;;;5012938;28;20124;-42
2023/02/23 11:29:10;;;;;;;25.15;4.38;;;;;;;;;;5012697;28;20022;-42
2023/02/23 11:31:39;;;;;;;27.77;4.38;;;;;;;;;;5012740;28;20069;-42
2023/02/23 11:34:06;;;;;;;13.43;3.78;;;;;;;;;;5012521;28;20037;-42
2023/02/23 11:36:35;;;;;;;38.03;5.38;;;;;;;;;;5011924;28;20034;-42
2023/02/23 11:39:02;;;;;;;20.23;4.38;;;;;;;;;;5012551;28;20026;-42
2023/02/23 11:41:31;;;;;;;21.58;4.00;;;;;;;;;;5012690;28;20030;-42
2023/02/23 11:44:01;;;;;;;17.75;3.97;;;;;;;;;;5012504;28;20041;-42
2023/02/23 11:46:29;;;;;;;17.38;3.70;;;;;;;;;;5012456;28;20026;-42
2023/02/23 11:48:59;;;;;;;19.58;4.05;;;;;;;;;;5012364;28;20022;-42
2023/02/23 11:51:31;;;;;;;22.05;4.30;;;;;;;;;;5012443;28;20025;-42
2023/02/23 11:53:58;;;;;;;16.38;4.07;;;;;;;;;;5012320;28;20488;-42
2023/02/23 11:56:26;;;;;;;19.13;3.38;;;;;;;;;;5012172;28;20618;-42
2023/02/23 11:59:01;;;;;;;24.50;4.07;;;;;;;;;;5021557;28;20039;-42
2023/02/23 12:01:40;;;;;;;30.95;4.80;;;;;;;;;;5029373;28;20026;-43
2023/02/23 12:04:08;;;;;;;25.88;4.30;;;;;;;;;;5031723;28;20037;-40
2023/02/23 12:06:40;;;;;;;46.80;6.03;;;;;;;;;;5031748;28;20038;-40
2023/02/23 12:09:07;;;;;;;15.57;3.88;;;;;;;;;;5031681;28;20025;-41
2023/02/23 12:11:37;;;;;;;16.17;3.50;;;;;;;;;;5031262;28;20158;-41
2023/02/23 12:14:22;;;;;;;26.08;3.97;;;;;;;;;;5031286;28;20037;-42
2023/02/23 12:16:58;;;;;;;28.92;3.88;;;;;;;;;;5031700;28;20102;-42
2023/02/23 12:19:37;;;;;;;40.40;4.78;;;;;;;;;;5031606;28;20026;-43
2023/02/23 12:22:07;;;;;;;45.33;5.90;;;;;;;;;;5031664;28;20390;-43
2023/02/23 12:24:40;;;;;;;29.48;5.05;;;;;;;;;;5031384;28;20084;-42
2023/02/23 12:27:26;;;;;;;51.67;5.85;;;;;;;;;;5031578;28;20025;-42
2023/02/23 12:29:53;;;;;;;48.28;5.40;;;;;;;;;;5031337;28;20044;-39
2023/02/23 12:32:38;;;;;;;24.27;4.88;;;;;;;;;;5031149;28;20042;-40
2023/02/23 12:35:14;;;;;;;45.97;5.35;;;;;;;;;;5031465;28;20510;-39
2023/02/23 12:38:02;;;;;;;32.88;5.20;;;;;;;;;;5031337;28;20033;-40
2023/02/23 12:40:34;;;;;;;19.88;2.50;;;;;;;;;;5031357;28;20541;-40
2023/02/23 12:43:23;;;;;;;24.92;2.88;;;;;;;;;;5031317;28;20029;-40
2023/02/23 12:46:13;;;;;;;119.03;11.45;;;;;;;;;;5031321;28;20037;-40
2023/02/23 12:48:59;;;;;;;26.13;3.90;;;;;;;;;;5018621;28;20041;-40
2023/02/23 12:51:30;;;;;;;18.48;2.90;;;;;;;;;;5031231;28;20037;-41
2023/02/23 12:53:57;;;;;;;17.42;2.63;;;;;;;;;;5031263;28;20033;-40
2023/02/23 12:56:26;;;;;;;20.63;2.50;;;;;;;;;;5030883;28;20029;-40
2023/02/23 12:58:56;;;;;;;17.98;3.08;;;;;;;;;;5030877;28;20544;-41
2023/02/23 13:01:29;;;;;;;46.05;4.65;;;;;;;;;;5031146;28;20028;-40
2023/02/23 13:04:05;;;;;;;13.18;2.30;;;;;;;;;;5030820;28;20088;-40
2023/02/23 13:06:35;;;;;;;15.57;2.70;;;;;;;;;;5030909;28;20021;-40
2023/02/23 13:09:07;;;;;;;38.10;4.43;;;;;;;;;;5030647;28;20041;-40
2023/02/23 13:11:37;;;;;;;23.30;3.10;;;;;;;;;;5030837;28;20021;-40
2023/02/23 13:14:12;;;;;;;19.85;2.55;;;;;;;;;;5030875;28;20025;-40
2023/02/23 13:16:45;;;;;;;17.00;2.72;;;;;;;;;;5030850;28;20026;-40
2023/02/23 13:19:15;;;;;;;10.55;2.47;;;;;;;;;;5030780;28;20026;-40
2023/02/23 13:21:42;;;;;;;32.88;3.63;;;;;;;;;;5030595;28;20401;-40
2023/02/23 13:24:31;;;;;;;108.22;12.30;;;;;;;;;;5030872;28;20048;-40
2023/02/23 13:27:03;;;;;;;28.75;3.10;;;;;;;;;;5030868;28;20502;-40
2023/02/23 13:29:37;;;;;;;23.95;2.92;;;;;;;;;;5030480;28;20116;-40
2023/02/23 13:32:05;;;;;;;14.55;1.98;;;;;;;;;;5030391;28;20049;-40
2023/02/23 13:34:39;;;;;;;15.05;2.08;;;;;;;;;;5030756;28;20033;-40
2023/02/23 13:37:07;;;;;;;28.70;2.72;;;;;;;;;;5030766;28;20065;-40
2023/02/23 13:39:52;;;;;;;44.35;5.18;;;;;;;;;;5030605;28;20032;-40
2023/02/23 13:42:25;;;;;;;22.73;2.60;;;;;;;;;;5018160;28;20029;-40
2023/02/23 13:45:01;;;;;;;55.20;5.15;;;;;;;;;;5010908;28;20506;-40
2023/02/23 13:47:36;;;;;;;27.60;3.22;;;;;;;;;;5010906;28;20025;-40
2023/02/23 13:50:21;;;;;;;61.38;7.97;;;;;;;;;;5010857;28;20514;-40
2023/02/23 13:52:48;;;;;;;43.35;5.45;;;;;;;;;;5010794;28;20044;-41
2023/02/23 13:55:28;;;;;;;52.42;4.88;;;;;;;;;;5010894;28;20108;-40
2023/02/23 13:58:03;;;;;;;34.33;3.65;;;;;;;;;;5010752;28;20117;-40
2023/02/23 14:00:30;;;;;;;18.77;2.70;;;;;;;;;;5013710;28;20041;-40
2023/02/23 14:02:57;;;;;;;82.45;6.10;;;;;;;;;;5014490;28;20038;-40
2023/02/23 14:05:25;;;;;;;34.60;3.20;;;;;;;;;;5014371;28;20018;-41
2023/02/23 14:07:53;;;;;;;48.20;5.10;;;;;;;;;;5014248;28;20830;-40
2023/02/23 14:10:25;;;;;;;19.35;2.20;;;;;;;;;;4996707;28;20530;-40
2023/02/23 14:13:04;;;;;;;33.33;4.03;;;;;;;;;;5022315;28;20045;-42
2023/02/23 14:15:37;;;;;;;28.70;2.70;;;;;;;;;;5034105;28;20033;-40
2023/02/23 14:18:27;;;;;;;13.93;2.42;;;;;;;;;;5033908;28;20029;-40
2023/02/23 14:20:54;;;;;;;33.40;3.80;;;;;;;;;;5033750;28;20095;-40
2023/02/23 14:23:21;;;;;;;33.45;4.15;;;;;;;;;;5034181;28;20205;-40
2023/02/23 14:26:11;;;;;;;23.63;2.92;;;;;;;;;;5016218;28;20037;-40
2023/02/23 14:28:39;;;;;;;22.13;2.03;;;;;;;;;;4988155;28;20578;-41
2023/02/23 14:31:12;;;;;;;17.42;2.35;;;;;;;;;;5033664;28;20029;-40
2023/02/23 14:33:45;;;;;;;46.35;4.05;;;;;;;;;;5033414;28;20063;-40
2023/02/23 14:36:21;;;;;;;16.60;2.45;;;;;;;;;;5033624;28;20040;-40
2023/02/23 14:38:59;;;;;;;10.25;1.75;;;;;;;;;;5033235;28;20037;-41
2023/02/23 14:41:45;;;;;;;13.50;2.55;;;;;;;;;;5022049;28;20036;-40
2023/02/23 14:44:17;;;;;;;66.78;7.18;;;;;;;;;;5022739;28;20026;-41
2023/02/23 14:46:44;;;;;;;;;;;;;;;;;;5022473;28;20029;-43
2023/02/23 14:49:17;;;;;;;22.52;2.10;;;;;;;;;;5023563;28;20322;-40
2023/02/23 14:52:10;;;;;;;42.42;4.63;;;;;;;;;;5023696;28;20487;-41
2023/02/23 14:54:39;;;;;;;25.42;2.17;;;;;;;;;;5019083;28;20037;-40
2023/02/23 14:57:07;;;;;;;51.92;7.18;;;;;;;;;;5021746;28;20381;-40
2023/02/23 14:59:41;;;;;;;27.73;3.13;;;;;;;;;;5029929;28;20064;-40
2023/02/23 15:02:10;;;;;;;48.47;6.00;;;;;;;;;;5026938;28;20146;-40
2023/02/23 15:04:40;;;;;;;35.10;4.57;;;;;;;;;;5021990;28;20033;-41
2023/02/23 15:07:15;;;;;;;32.63;4.03;;;;;;;;;;5016953;28;20037;-40
2023/02/23 15:09:42;;;;;;;17.27;2.60;;;;;;;;;;5018745;28;20042;-42
2023/02/23 15:12:27;;;;;;;35.83;3.33;;;;;;;;;;5027059;28;20029;-42
2023/02/23 15:14:59;;;;;;;27.75;3.15;;;;;;;;;;5022640;28;20476;-40
2023/02/23 15:17:29;;;;;;;53.92;5.70;;;;;;;;;;5020720;28;20025;-42
2023/02/23 15:19:58;;;;;;;31.95;3.63;;;;;;;;;;5001729;28;20140;-44
2023/02/23 15:22:31;;;;;;;29.38;3.70;;;;;;;;;;5015512;28;20030;-46
2023/02/23 15:25:06;;;;;;;34.58;4.45;;;;;;;;;;5020168;28;20124;-47
2023/02/23 15:27:41;;;;;;;37.67;3.75;;;;;;;;;;5020623;28;20048;-47
2023/02/23 15:30:37;;;;;;;38.00;3.58;;;;;;;;;;5022031;28;20030;-48
2023/02/23 15:33:05;;;;;;;43.70;3.78;;;;;;;;;;5004391;28;20065;-43
2023/02/23 15:35:41;;;;;;;44.85;4.75;;;;;;;;;;5028424;28;20040;-46
2023/02/23 15:38:09;;;;;;;47.38;4.90;;;;;;;;;;5026060;28;20037;-46
2023/02/23 15:40:36;;;;;;;40.08;4.40;;;;;;;;;;5025800;28;20112;-48
2023/02/23 15:43:03;;;;;;;36.95;3.75;;;;;;;;;;5020954;28;20083;-48
2023/02/23 15:45:30;;;;;;;31.65;3.92;;;;;;;;;;5021505;28;20029;-48
2023/02/23 15:47:58;;;;;;;29.67;4.32;;;;;;;;;;5021325;28;20117;-48
2023/02/23 15:50:29;;;;;;;34.55;3.75;;;;;;;;;;5017686;28;20025;-45
2023/02/23 15:53:01;;;;;;;27.80;3.30;;;;;;;;;;5012224;28;20048;-46
2023/02/23 15:55:37;;;;;;;23.23;3.88;;;;;;;;;;5014398;28;20033;-45
2023/02/23 15:58:31;;;;;;;29.00;3.75;;;;;;;;;;5030254;28;20437;-44
2023/02/23 16:01:00;;;;;;;26.92;3.53;;;;;;;;;;5026237;28;20041;-46
2023/02/23 16:03:27;;;;;;;24.48;3.47;;;;;;;;;;5006300;28;20062;-46
2023/02/23 16:05:55;;;;;;;20.77;3.55;;;;;;;;;;5012396;28;20041;-45
2023/02/23 16:08:26;;;;;;;19.38;3.40;;;;;;;;;;5013696;28;20030;-47
2023/02/23 16:11:20;;;;;;;27.90;3.72;;;;;;;;;;5019242;28;20076;-45
2023/02/23 16:13:54;;;;;;;21.98;4.10;;;;;;;;;;5027669;28;20046;-48